sensor_id;sensor_type;location;lat;lon;timestamp;P1;durP1;ratioP1;P2;durP2;ratioP2
55497;SDS011;41357;52.806;18.268;2023-11-19T00:00:18;64.55;;;23.42;;
55497;SDS011;41357;52.806;18.268;2023-11-19T00:02:44;60.13;;;21.20;;
55497;SDS011;41357;52.806;18.268;2023-11-19T00:05:10;64.63;;;25.10;;
55497;SDS011;41357;52.806;18.268;2023-11-19T00:07:37;52.00;;;20.08;;
55497;SDS011;41357;52.806;18.268;2023-11-19T00:10:08;51.78;;;17.42;;
55497;SDS011;41357;52.806;18.268;2023-11-19T00:12:36;42.72;;;17.70;;
55497;SDS011;41357;52.806;18.268;2023-11-19T00:15:02;51.72;;;19.13;;
55497;SDS011;41357;52.806;18.268;2023-11-19T00:17:28;54.78;;;19.02;;
55497;SDS011;41357;52.806;18.268;2023-11-19T00:19:54;47.28;;;19.42;;
55497;SDS011;41357;52.806;18.268;2023-11-19T00:22:20;53.17;;;21.35;;
55497;SDS011;41357;52.806;18.268;2023-11-19T00:24:47;52.42;;;19.55;;
55497;SDS011;41357;52.806;18.268;2023-11-19T00:27:13;45.70;;;17.38;;
55497;SDS011;41357;52.806;18.268;2023-11-19T00:29:40;54.15;;;19.27;;
55497;SDS011;41357;52.806;18.268;2023-11-19T00:32:07;39.78;;;17.73;;
55497;SDS011;41357;52.806;18.268;2023-11-19T00:34:34;48.83;;;18.05;;
55497;SDS011;41357;52.806;18.268;2023-11-19T00:37:00;44.25;;;18.15;;
55497;SDS011;41357;52.806;18.268;2023-11-19T00:39:28;57.60;;;18.60;;
55497;SDS011;41357;52.806;18.268;2023-11-19T00:41:55;70.40;;;23.13;;
55497;SDS011;41357;52.806;18.268;2023-11-19T00:44:21;79.28;;;25.15;;
55497;SDS011;41357;52.806;18.268;2023-11-19T00:46:47;62.65;;;22.50;;
55497;SDS011;41357;52.806;18.268;2023-11-19T00:49:13;49.80;;;20.20;;
55497;SDS011;41357;52.806;18.268;2023-11-19T00:51:40;58.90;;;21.08;;
55497;SDS011;41357;52.806;18.268;2023-11-19T00:54:06;44.63;;;17.25;;
55497;SDS011;41357;52.806;18.268;2023-11-19T00:56:32;43.17;;;16.90;;
55497;SDS011;41357;52.806;18.268;2023-11-19T00:58:58;40.53;;;16.65;;
55497;SDS011;41357;52.806;18.268;2023-11-19T01:01:25;56.65;;;16.23;;
55497;SDS011;41357;52.806;18.268;2023-11-19T01:03:51;45.85;;;16.90;;
55497;SDS011;41357;52.806;18.268;2023-11-19T01:06:27;60.95;;;19.63;;
55497;SDS011;41357;52.806;18.268;2023-11-19T01:08:53;57.13;;;16.92;;
55497;SDS011;41357;52.806;18.268;2023-11-19T01:11:23;72.13;;;23.30;;
55497;SDS011;41357;52.806;18.268;2023-11-19T01:13:49;76.13;;;21.60;;
55497;SDS011;41357;52.806;18.268;2023-11-19T01:16:16;41.53;;;15.80;;
55497;SDS011;41357;52.806;18.268;2023-11-19T01:18:42;40.20;;;15.18;;
55497;SDS011;41357;52.806;18.268;2023-11-19T01:21:08;43.10;;;17.75;;
55497;SDS011;41357;52.806;18.268;2023-11-19T01:23:35;35.38;;;15.68;;
55497;SDS011;41357;52.806;18.268;2023-11-19T01:26:02;39.83;;;15.05;;
55497;SDS011;41357;52.806;18.268;2023-11-19T01:28:30;34.63;;;14.80;;
55497;SDS011;41357;52.806;18.268;2023-11-19T01:30:56;49.05;;;14.20;;
55497;SDS011;41357;52.806;18.268;2023-11-19T01:33:23;57.72;;;17.92;;
55497;SDS011;41357;52.806;18.268;2023-11-19T01:35:49;55.22;;;17.23;;
55497;SDS011;41357;52.806;18.268;2023-11-19T01:38:15;48.83;;;16.30;;
55497;SDS011;41357;52.806;18.268;2023-11-19T01:40:41;43.90;;;17.88;;
55497;SDS011;41357;52.806;18.268;2023-11-19T01:43:07;47.05;;;16.85;;
55497;SDS011;41357;52.806;18.268;2023-11-19T01:45:36;42.13;;;14.90;;
55497;SDS011;41357;52.806;18.268;2023-11-19T01:48:03;34.47;;;13.93;;
55497;SDS011;41357;52.806;18.268;2023-11-19T01:50:29;36.78;;;14.23;;
55497;SDS011;41357;52.806;18.268;2023-11-19T01:52:56;32.95;;;13.75;;
55497;SDS011;41357;52.806;18.268;2023-11-19T01:55:22;37.08;;;12.93;;
55497;SDS011;41357;52.806;18.268;2023-11-19T01:57:49;35.28;;;12.77;;
55497;SDS011;41357;52.806;18.268;2023-11-19T02:00:16;33.85;;;12.40;;
55497;SDS011;41357;52.806;18.268;2023-11-19T02:02:48;29.88;;;12.35;;
55497;SDS011;41357;52.806;18.268;2023-11-19T02:05:14;30.27;;;11.73;;
55497;SDS011;41357;52.806;18.268;2023-11-19T02:07:41;29.45;;;11.90;;
55497;SDS011;41357;52.806;18.268;2023-11-19T02:10:08;33.15;;;12.43;;
55497;SDS011;41357;52.806;18.268;2023-11-19T02:12:42;36.55;;;11.77;;
55497;SDS011;41357;52.806;18.268;2023-11-19T02:15:09;25.05;;;10.25;;
55497;SDS011;41357;52.806;18.268;2023-11-19T02:17:35;36.65;;;11.82;;
55497;SDS011;41357;52.806;18.268;2023-11-19T02:20:05;27.67;;;10.40;;
55497;SDS011;41357;52.806;18.268;2023-11-19T02:22:36;28.88;;;11.95;;
55497;SDS011;41357;52.806;18.268;2023-11-19T02:25:25;21.88;;;9.27;;
55497;SDS011;41357;52.806;18.268;2023-11-19T02:27:56;25.13;;;10.07;;
55497;SDS011;41357;52.806;18.268;2023-11-19T02:30:23;21.70;;;8.68;;
55497;SDS011;41357;52.806;18.268;2023-11-19T02:32:53;21.20;;;9.65;;
55497;SDS011;41357;52.806;18.268;2023-11-19T02:35:22;21.55;;;9.10;;
55497;SDS011;41357;52.806;18.268;2023-11-19T02:37:48;22.55;;;8.65;;
55497;SDS011;41357;52.806;18.268;2023-11-19T02:40:14;28.70;;;9.73;;
55497;SDS011;41357;52.806;18.268;2023-11-19T02:42:40;21.38;;;8.68;;
55497;SDS011;41357;52.806;18.268;2023-11-19T02:45:07;26.50;;;9.90;;
55497;SDS011;41357;52.806;18.268;2023-11-19T02:47:39;24.77;;;9.85;;
55497;SDS011;41357;52.806;18.268;2023-11-19T02:50:06;22.90;;;10.10;;
55497;SDS011;41357;52.806;18.268;2023-11-19T02:52:38;19.48;;;9.23;;
55497;SDS011;41357;52.806;18.268;2023-11-19T02:55:05;22.77;;;9.63;;
55497;SDS011;41357;52.806;18.268;2023-11-19T02:57:35;30.17;;;9.85;;
55497;SDS011;41357;52.806;18.268;2023-11-19T03:00:01;22.45;;;9.60;;
55497;SDS011;41357;52.806;18.268;2023-11-19T03:02:38;19.13;;;8.95;;
55497;SDS011;41357;52.806;18.268;2023-11-19T03:05:09;21.30;;;8.20;;
55497;SDS011;41357;52.806;18.268;2023-11-19T03:07:36;26.70;;;8.25;;
55497;SDS011;41357;52.806;18.268;2023-11-19T03:10:02;23.48;;;9.13;;
55497;SDS011;41357;52.806;18.268;2023-11-19T03:12:31;17.30;;;7.68;;
55497;SDS011;41357;52.806;18.268;2023-11-19T03:14:57;24.73;;;8.68;;
55497;SDS011;41357;52.806;18.268;2023-11-19T03:17:23;16.35;;;8.63;;
55497;SDS011;41357;52.806;18.268;2023-11-19T03:19:50;15.23;;;7.63;;
55497;SDS011;41357;52.806;18.268;2023-11-19T03:22:16;20.02;;;7.80;;
55497;SDS011;41357;52.806;18.268;2023-11-19T03:24:42;18.88;;;7.47;;
55497;SDS011;41357;52.806;18.268;2023-11-19T03:27:08;19.48;;;8.00;;
55497;SDS011;41357;52.806;18.268;2023-11-19T03:29:35;19.88;;;7.53;;
55497;SDS011;41357;52.806;18.268;2023-11-19T03:32:01;20.23;;;7.07;;
55497;SDS011;41357;52.806;18.268;2023-11-19T03:34:27;24.63;;;7.72;;
55497;SDS011;41357;52.806;18.268;2023-11-19T03:36:53;16.83;;;7.82;;
55497;SDS011;41357;52.806;18.268;2023-11-19T03:39:20;15.50;;;7.10;;
55497;SDS011;41357;52.806;18.268;2023-11-19T03:41:49;14.93;;;6.80;;
55497;SDS011;41357;52.806;18.268;2023-11-19T03:44:16;14.07;;;6.22;;
55497;SDS011;41357;52.806;18.268;2023-11-19T03:46:42;18.77;;;6.93;;
55497;SDS011;41357;52.806;18.268;2023-11-19T03:49:08;15.88;;;7.07;;
55497;SDS011;41357;52.806;18.268;2023-11-19T03:51:34;15.15;;;6.85;;
55497;SDS011;41357;52.806;18.268;2023-11-19T03:54:00;20.00;;;8.77;;
55497;SDS011;41357;52.806;18.268;2023-11-19T03:56:26;23.83;;;9.63;;
55497;SDS011;41357;52.806;18.268;2023-11-19T03:58:52;26.45;;;11.85;;
55497;SDS011;41357;52.806;18.268;2023-11-19T04:01:19;17.58;;;7.97;;
55497;SDS011;41357;52.806;18.268;2023-11-19T04:03:45;16.92;;;7.68;;
55497;SDS011;41357;52.806;18.268;2023-11-19T04:06:11;18.80;;;8.48;;
55497;SDS011;41357;52.806;18.268;2023-11-19T04:08:37;22.98;;;9.73;;
55497;SDS011;41357;52.806;18.268;2023-11-19T04:11:04;35.97;;;16.30;;
55497;SDS011;41357;52.806;18.268;2023-11-19T04:13:30;32.15;;;12.77;;
55497;SDS011;41357;52.806;18.268;2023-11-19T04:15:56;23.70;;;11.15;;
55497;SDS011;41357;52.806;18.268;2023-11-19T04:18:22;26.08;;;12.88;;
55497;SDS011;41357;52.806;18.268;2023-11-19T04:20:48;23.15;;;8.88;;
55497;SDS011;41357;52.806;18.268;2023-11-19T04:23:16;16.58;;;8.02;;
55497;SDS011;41357;52.806;18.268;2023-11-19T04:25:42;18.88;;;7.18;;
55497;SDS011;41357;52.806;18.268;2023-11-19T04:28:08;20.10;;;8.45;;
55497;SDS011;41357;52.806;18.268;2023-11-19T04:30:34;17.00;;;8.40;;
55497;SDS011;41357;52.806;18.268;2023-11-19T04:33:00;17.55;;;8.07;;
55497;SDS011;41357;52.806;18.268;2023-11-19T04:35:27;21.52;;;7.80;;
55497;SDS011;41357;52.806;18.268;2023-11-19T04:37:53;15.73;;;6.32;;
55497;SDS011;41357;52.806;18.268;2023-11-19T04:40:22;14.57;;;6.35;;
55497;SDS011;41357;52.806;18.268;2023-11-19T04:42:48;12.55;;;6.53;;
55497;SDS011;41357;52.806;18.268;2023-11-19T04:45:15;19.08;;;8.05;;
55497;SDS011;41357;52.806;18.268;2023-11-19T04:47:41;13.40;;;5.82;;
55497;SDS011;41357;52.806;18.268;2023-11-19T04:50:08;15.98;;;7.10;;
55497;SDS011;41357;52.806;18.268;2023-11-19T04:52:37;16.77;;;6.70;;
55497;SDS011;41357;52.806;18.268;2023-11-19T04:55:10;21.85;;;8.18;;
55497;SDS011;41357;52.806;18.268;2023-11-19T04:57:39;15.02;;;7.70;;
55497;SDS011;41357;52.806;18.268;2023-11-19T05:00:06;15.52;;;5.75;;
55497;SDS011;41357;52.806;18.268;2023-11-19T05:02:34;14.60;;;7.47;;
55497;SDS011;41357;52.806;18.268;2023-11-19T05:05:01;15.52;;;7.57;;
55497;SDS011;41357;52.806;18.268;2023-11-19T05:07:29;18.50;;;8.07;;
55497;SDS011;41357;52.806;18.268;2023-11-19T05:09:55;18.50;;;8.95;;
55497;SDS011;41357;52.806;18.268;2023-11-19T05:12:21;17.02;;;7.22;;
55497;SDS011;41357;52.806;18.268;2023-11-19T05:14:48;12.80;;;6.40;;
55497;SDS011;41357;52.806;18.268;2023-11-19T05:17:18;19.08;;;7.55;;
55497;SDS011;41357;52.806;18.268;2023-11-19T05:19:45;12.80;;;6.68;;
55497;SDS011;41357;52.806;18.268;2023-11-19T05:22:12;12.27;;;6.03;;
55497;SDS011;41357;52.806;18.268;2023-11-19T05:24:39;13.05;;;6.32;;
55497;SDS011;41357;52.806;18.268;2023-11-19T05:27:06;15.30;;;6.45;;
55497;SDS011;41357;52.806;18.268;2023-11-19T05:29:33;14.20;;;6.57;;
55497;SDS011;41357;52.806;18.268;2023-11-19T05:31:59;11.65;;;6.13;;
55497;SDS011;41357;52.806;18.268;2023-11-19T05:34:26;12.98;;;5.90;;
55497;SDS011;41357;52.806;18.268;2023-11-19T05:36:53;21.67;;;7.18;;
55497;SDS011;41357;52.806;18.268;2023-11-19T05:39:19;15.75;;;6.85;;
55497;SDS011;41357;52.806;18.268;2023-11-19T05:41:46;18.92;;;7.60;;
55497;SDS011;41357;52.806;18.268;2023-11-19T05:44:12;9.60;;;3.80;;
55497;SDS011;41357;52.806;18.268;2023-11-19T05:46:39;14.35;;;6.55;;
55497;SDS011;41357;52.806;18.268;2023-11-19T05:49:08;12.27;;;6.03;;
55497;SDS011;41357;52.806;18.268;2023-11-19T05:51:38;14.23;;;7.00;;
55497;SDS011;41357;52.806;18.268;2023-11-19T05:54:06;15.45;;;7.43;;
55497;SDS011;41357;52.806;18.268;2023-11-19T05:56:32;14.52;;;6.90;;
55497;SDS011;41357;52.806;18.268;2023-11-19T05:58:59;13.27;;;6.80;;
55497;SDS011;41357;52.806;18.268;2023-11-19T06:01:26;14.25;;;6.82;;
55497;SDS011;41357;52.806;18.268;2023-11-19T06:03:54;17.02;;;7.75;;
55497;SDS011;41357;52.806;18.268;2023-11-19T06:06:20;12.20;;;6.03;;
55497;SDS011;41357;52.806;18.268;2023-11-19T06:08:46;18.35;;;7.32;;
55497;SDS011;41357;52.806;18.268;2023-11-19T06:11:12;17.13;;;7.13;;
55497;SDS011;41357;52.806;18.268;2023-11-19T06:13:43;18.88;;;6.63;;
55497;SDS011;41357;52.806;18.268;2023-11-19T06:16:09;16.67;;;7.20;;
55497;SDS011;41357;52.806;18.268;2023-11-19T06:18:38;13.10;;;6.55;;
55497;SDS011;41357;52.806;18.268;2023-11-19T06:21:06;13.30;;;4.97;;
55497;SDS011;41357;52.806;18.268;2023-11-19T06:23:33;14.18;;;6.38;;
55497;SDS011;41357;52.806;18.268;2023-11-19T06:25:59;19.83;;;6.05;;
55497;SDS011;41357;52.806;18.268;2023-11-19T06:28:26;10.05;;;4.55;;
55497;SDS011;41357;52.806;18.268;2023-11-19T06:30:52;21.65;;;8.93;;
55497;SDS011;41357;52.806;18.268;2023-11-19T06:33:18;14.48;;;7.20;;
55497;SDS011;41357;52.806;18.268;2023-11-19T06:35:44;23.85;;;10.18;;
55497;SDS011;41357;52.806;18.268;2023-11-19T06:38:11;14.35;;;6.22;;
55497;SDS011;41357;52.806;18.268;2023-11-19T06:40:37;18.80;;;7.40;;
55497;SDS011;41357;52.806;18.268;2023-11-19T06:43:05;14.45;;;7.75;;
55497;SDS011;41357;52.806;18.268;2023-11-19T06:45:33;25.25;;;9.23;;
55497;SDS011;41357;52.806;18.268;2023-11-19T06:48:03;22.98;;;8.70;;
55497;SDS011;41357;52.806;18.268;2023-11-19T06:50:30;13.90;;;7.35;;
55497;SDS011;41357;52.806;18.268;2023-11-19T06:52:56;23.30;;;9.75;;
55497;SDS011;41357;52.806;18.268;2023-11-19T06:55:22;25.75;;;9.70;;
55497;SDS011;41357;52.806;18.268;2023-11-19T06:57:48;24.42;;;9.60;;
55497;SDS011;41357;52.806;18.268;2023-11-19T07:00:14;19.42;;;7.47;;
55497;SDS011;41357;52.806;18.268;2023-11-19T07:02:40;31.65;;;9.95;;
55497;SDS011;41357;52.806;18.268;2023-11-19T07:05:07;24.60;;;8.85;;
55497;SDS011;41357;52.806;18.268;2023-11-19T07:07:33;16.33;;;7.10;;
55497;SDS011;41357;52.806;18.268;2023-11-19T07:10:00;26.08;;;9.40;;
55497;SDS011;41357;52.806;18.268;2023-11-19T07:12:31;27.08;;;9.95;;
55497;SDS011;41357;52.806;18.268;2023-11-19T07:14:58;20.73;;;9.40;;
55497;SDS011;41357;52.806;18.268;2023-11-19T07:17:24;15.55;;;7.50;;
55497;SDS011;41357;52.806;18.268;2023-11-19T07:19:50;22.85;;;10.20;;
55497;SDS011;41357;52.806;18.268;2023-11-19T07:22:16;23.38;;;9.85;;
55497;SDS011;41357;52.806;18.268;2023-11-19T07:24:42;22.20;;;9.52;;
55497;SDS011;41357;52.806;18.268;2023-11-19T07:27:08;18.85;;;8.90;;
55497;SDS011;41357;52.806;18.268;2023-11-19T07:29:35;20.33;;;10.88;;
55497;SDS011;41357;52.806;18.268;2023-11-19T07:32:01;20.88;;;9.90;;
55497;SDS011;41357;52.806;18.268;2023-11-19T07:34:27;21.85;;;10.63;;
55497;SDS011;41357;52.806;18.268;2023-11-19T07:36:54;23.02;;;8.27;;
55497;SDS011;41357;52.806;18.268;2023-11-19T07:39:24;27.17;;;12.60;;
55497;SDS011;41357;52.806;18.268;2023-11-19T07:41:50;26.45;;;11.55;;
55497;SDS011;41357;52.806;18.268;2023-11-19T07:44:16;19.55;;;9.88;;
55497;SDS011;41357;52.806;18.268;2023-11-19T07:46:43;23.83;;;10.93;;
55497;SDS011;41357;52.806;18.268;2023-11-19T07:49:10;20.00;;;7.13;;
55497;SDS011;41357;52.806;18.268;2023-11-19T07:51:36;18.52;;;8.90;;
55497;SDS011;41357;52.806;18.268;2023-11-19T07:54:02;14.18;;;7.65;;
55497;SDS011;41357;52.806;18.268;2023-11-19T07:56:29;12.98;;;5.60;;
55497;SDS011;41357;52.806;18.268;2023-11-19T07:58:55;22.60;;;9.25;;
55497;SDS011;41357;52.806;18.268;2023-11-19T08:01:21;17.95;;;8.40;;
55497;SDS011;41357;52.806;18.268;2023-11-19T08:03:48;27.38;;;11.02;;
55497;SDS011;41357;52.806;18.268;2023-11-19T08:06:14;17.15;;;7.20;;
55497;SDS011;41357;52.806;18.268;2023-11-19T08:08:41;19.73;;;7.72;;
55497;SDS011;41357;52.806;18.268;2023-11-19T08:11:08;21.63;;;8.65;;
55497;SDS011;41357;52.806;18.268;2023-11-19T08:13:34;19.05;;;9.10;;
55497;SDS011;41357;52.806;18.268;2023-11-19T08:16:00;21.60;;;9.80;;
55497;SDS011;41357;52.806;18.268;2023-11-19T08:18:26;28.60;;;10.57;;
55497;SDS011;41357;52.806;18.268;2023-11-19T08:20:53;31.98;;;13.07;;
55497;SDS011;41357;52.806;18.268;2023-11-19T08:23:19;25.65;;;11.68;;
55497;SDS011;41357;52.806;18.268;2023-11-19T08:25:46;26.58;;;10.40;;
55497;SDS011;41357;52.806;18.268;2023-11-19T08:28:12;24.17;;;10.95;;
55497;SDS011;41357;52.806;18.268;2023-11-19T08:30:38;18.17;;;9.65;;
55497;SDS011;41357;52.806;18.268;2023-11-19T08:33:04;26.55;;;12.45;;
55497;SDS011;41357;52.806;18.268;2023-11-19T08:35:32;28.23;;;11.82;;
55497;SDS011;41357;52.806;18.268;2023-11-19T08:37:58;19.83;;;10.15;;
55497;SDS011;41357;52.806;18.268;2023-11-19T08:40:24;31.05;;;12.02;;
55497;SDS011;41357;52.806;18.268;2023-11-19T08:42:55;30.90;;;11.37;;
55497;SDS011;41357;52.806;18.268;2023-11-19T08:45:21;30.17;;;12.18;;
55497;SDS011;41357;52.806;18.268;2023-11-19T08:47:47;36.30;;;13.02;;
55497;SDS011;41357;52.806;18.268;2023-11-19T08:50:13;32.80;;;12.30;;
55497;SDS011;41357;52.806;18.268;2023-11-19T08:52:40;15.45;;;7.50;;
55497;SDS011;41357;52.806;18.268;2023-11-19T08:55:06;26.77;;;10.75;;
55497;SDS011;41357;52.806;18.268;2023-11-19T08:57:34;29.42;;;10.07;;
55497;SDS011;41357;52.806;18.268;2023-11-19T09:00:01;27.52;;;10.68;;
55497;SDS011;41357;52.806;18.268;2023-11-19T09:02:28;36.35;;;11.80;;
55497;SDS011;41357;52.806;18.268;2023-11-19T09:04:54;22.88;;;9.10;;
55497;SDS011;41357;52.806;18.268;2023-11-19T09:07:20;24.95;;;11.77;;
55497;SDS011;41357;52.806;18.268;2023-11-19T09:09:46;18.70;;;8.48;;
55497;SDS011;41357;52.806;18.268;2023-11-19T09:12:12;31.90;;;12.13;;
55497;SDS011;41357;52.806;18.268;2023-11-19T09:14:39;26.27;;;9.55;;
55497;SDS011;41357;52.806;18.268;2023-11-19T09:17:05;24.52;;;11.32;;
55497;SDS011;41357;52.806;18.268;2023-11-19T09:19:32;22.92;;;10.43;;
55497;SDS011;41357;52.806;18.268;2023-11-19T09:22:01;31.98;;;12.20;;
55497;SDS011;41357;52.806;18.268;2023-11-19T09:24:27;17.77;;;7.20;;
55497;SDS011;41357;52.806;18.268;2023-11-19T09:26:54;30.77;;;12.82;;
55497;SDS011;41357;52.806;18.268;2023-11-19T09:29:21;17.38;;;9.45;;
55497;SDS011;41357;52.806;18.268;2023-11-19T09:31:47;25.40;;;12.07;;
55497;SDS011;41357;52.806;18.268;2023-11-19T09:34:13;36.25;;;13.35;;
55497;SDS011;41357;52.806;18.268;2023-11-19T09:36:39;27.27;;;11.77;;
55497;SDS011;41357;52.806;18.268;2023-11-19T09:39:09;32.00;;;12.82;;
55497;SDS011;41357;52.806;18.268;2023-11-19T09:41:35;23.63;;;11.93;;
55497;SDS011;41357;52.806;18.268;2023-11-19T09:44:01;37.47;;;14.75;;
55497;SDS011;41357;52.806;18.268;2023-11-19T09:46:27;27.05;;;10.07;;
55497;SDS011;41357;52.806;18.268;2023-11-19T09:48:54;29.40;;;12.55;;
55497;SDS011;41357;52.806;18.268;2023-11-19T09:51:21;25.70;;;11.15;;
55497;SDS011;41357;52.806;18.268;2023-11-19T09:53:48;18.10;;;9.35;;
55497;SDS011;41357;52.806;18.268;2023-11-19T09:56:14;26.33;;;10.25;;
55497;SDS011;41357;52.806;18.268;2023-11-19T09:58:44;19.80;;;8.43;;
55497;SDS011;41357;52.806;18.268;2023-11-19T10:01:10;27.05;;;11.05;;
55497;SDS011;41357;52.806;18.268;2023-11-19T10:03:37;30.98;;;12.90;;
55497;SDS011;41357;52.806;18.268;2023-11-19T10:06:08;29.23;;;11.38;;
55497;SDS011;41357;52.806;18.268;2023-11-19T10:08:38;25.27;;;11.65;;
55497;SDS011;41357;52.806;18.268;2023-11-19T10:11:07;27.83;;;12.48;;
55497;SDS011;41357;52.806;18.268;2023-11-19T10:13:35;29.88;;;11.18;;
55497;SDS011;41357;52.806;18.268;2023-11-19T10:16:08;29.95;;;12.82;;
55497;SDS011;41357;52.806;18.268;2023-11-19T10:18:36;31.55;;;11.88;;
55497;SDS011;41357;52.806;18.268;2023-11-19T10:21:06;35.70;;;15.23;;
55497;SDS011;41357;52.806;18.268;2023-11-19T10:26:13;39.38;;;13.95;;
55497;SDS011;41357;52.806;18.268;2023-11-19T10:28:39;31.67;;;14.25;;
55497;SDS011;41357;52.806;18.268;2023-11-19T10:31:09;29.17;;;10.95;;
55497;SDS011;41357;52.806;18.268;2023-11-19T10:33:35;28.35;;;12.07;;
55497;SDS011;41357;52.806;18.268;2023-11-19T10:36:01;34.55;;;12.40;;
55497;SDS011;41357;52.806;18.268;2023-11-19T10:38:28;33.72;;;14.00;;
55497;SDS011;41357;52.806;18.268;2023-11-19T10:40:54;27.15;;;11.52;;
55497;SDS011;41357;52.806;18.268;2023-11-19T10:43:21;26.25;;;12.02;;
55497;SDS011;41357;52.806;18.268;2023-11-19T10:45:50;28.27;;;11.10;;
55497;SDS011;41357;52.806;18.268;2023-11-19T10:48:17;34.25;;;12.05;;
55497;SDS011;41357;52.806;18.268;2023-11-19T10:50:44;32.40;;;13.52;;
55497;SDS011;41357;52.806;18.268;2023-11-19T10:53:12;32.78;;;12.52;;
55497;SDS011;41357;52.806;18.268;2023-11-19T10:55:39;32.08;;;12.23;;
55497;SDS011;41357;52.806;18.268;2023-11-19T10:58:05;37.42;;;15.25;;
55497;SDS011;41357;52.806;18.268;2023-11-19T11:00:36;35.67;;;14.60;;
55497;SDS011;41357;52.806;18.268;2023-11-19T11:03:05;37.55;;;15.75;;
55497;SDS011;41357;52.806;18.268;2023-11-19T11:05:35;49.42;;;18.88;;
55497;SDS011;41357;52.806;18.268;2023-11-19T11:08:02;30.73;;;14.75;;
55497;SDS011;41357;52.806;18.268;2023-11-19T11:10:29;33.42;;;14.85;;
55497;SDS011;41357;52.806;18.268;2023-11-19T11:12:59;39.15;;;17.13;;
55497;SDS011;41357;52.806;18.268;2023-11-19T11:15:29;33.50;;;12.93;;
55497;SDS011;41357;52.806;18.268;2023-11-19T11:17:57;39.70;;;15.57;;
55497;SDS011;41357;52.806;18.268;2023-11-19T11:20:27;29.92;;;13.15;;
55497;SDS011;41357;52.806;18.268;2023-11-19T11:23:44;39.88;;;14.50;;
55497;SDS011;41357;52.806;18.268;2023-11-19T11:28:21;30.58;;;13.27;;
55497;SDS011;41357;52.806;18.268;2023-11-19T11:38:15;36.22;;;15.75;;
55497;SDS011;41357;52.806;18.268;2023-11-19T11:41:14;62.90;;;21.40;;
55497;SDS011;41357;52.806;18.268;2023-11-19T11:43:43;46.70;;;17.02;;
55497;SDS011;41357;52.806;18.268;2023-11-19T11:46:45;62.75;;;20.95;;
55497;SDS011;41357;52.806;18.268;2023-11-19T11:48:56;42.22;;;16.63;;
55497;SDS011;41357;52.806;18.268;2023-11-19T11:54:03;50.15;;;19.05;;
55497;SDS011;41357;52.806;18.268;2023-11-19T11:56:33;50.20;;;20.08;;
55497;SDS011;41357;52.806;18.268;2023-11-19T11:58:59;50.00;;;18.88;;
55497;SDS011;41357;52.806;18.268;2023-11-19T12:01:25;39.97;;;16.52;;
55497;SDS011;41357;52.806;18.268;2023-11-19T12:03:55;56.83;;;20.30;;
55497;SDS011;41357;52.806;18.268;2023-11-19T12:06:21;57.15;;;20.58;;
55497;SDS011;41357;52.806;18.268;2023-11-19T12:08:48;51.33;;;21.05;;
55497;SDS011;41357;52.806;18.268;2023-11-19T12:11:14;48.97;;;18.92;;
55497;SDS011;41357;52.806;18.268;2023-11-19T12:13:52;48.40;;;18.55;;
55497;SDS011;41357;52.806;18.268;2023-11-19T12:16:21;47.05;;;16.63;;
55497;SDS011;41357;52.806;18.268;2023-11-19T12:18:47;39.03;;;16.08;;
55497;SDS011;41357;52.806;18.268;2023-11-19T12:23:57;45.30;;;16.65;;
55497;SDS011;41357;52.806;18.268;2023-11-19T12:26:33;44.92;;;16.50;;
55497;SDS011;41357;52.806;18.268;2023-11-19T12:29:00;30.02;;;13.07;;
55497;SDS011;41357;52.806;18.268;2023-11-19T12:31:26;40.33;;;14.68;;
55497;SDS011;41357;52.806;18.268;2023-11-19T12:33:52;75.20;;;25.23;;
55497;SDS011;41357;52.806;18.268;2023-11-19T12:36:19;33.17;;;16.42;;
55497;SDS011;41357;52.806;18.268;2023-11-19T12:38:45;25.80;;;10.05;;
55497;SDS011;41357;52.806;18.268;2023-11-19T12:41:12;42.95;;;17.17;;
55497;SDS011;41357;52.806;18.268;2023-11-19T12:43:42;46.97;;;18.10;;
55497;SDS011;41357;52.806;18.268;2023-11-19T12:48:50;45.75;;;17.48;;
55497;SDS011;41357;52.806;18.268;2023-11-19T12:51:16;38.97;;;14.93;;
55497;SDS011;41357;52.806;18.268;2023-11-19T12:53:52;46.67;;;16.50;;
55497;SDS011;41357;52.806;18.268;2023-11-19T12:56:23;43.03;;;17.65;;
55497;SDS011;41357;52.806;18.268;2023-11-19T12:58:50;35.25;;;15.00;;
55497;SDS011;41357;52.806;18.268;2023-11-19T13:01:19;40.05;;;15.82;;
55497;SDS011;41357;52.806;18.268;2023-11-19T13:03:46;49.22;;;18.77;;
55497;SDS011;41357;52.806;18.268;2023-11-19T13:06:14;61.50;;;20.02;;
55497;SDS011;41357;52.806;18.268;2023-11-19T13:08:47;43.58;;;16.02;;
55497;SDS011;41357;52.806;18.268;2023-11-19T13:11:31;54.65;;;20.00;;
55497;SDS011;41357;52.806;18.268;2023-11-19T13:13:59;39.78;;;15.23;;
55497;SDS011;41357;52.806;18.268;2023-11-19T13:16:27;45.30;;;16.60;;
55497;SDS011;41357;52.806;18.268;2023-11-19T13:18:53;41.00;;;14.50;;
55497;SDS011;41357;52.806;18.268;2023-11-19T13:21:20;68.60;;;20.17;;
55497;SDS011;41357;52.806;18.268;2023-11-19T13:23:46;52.35;;;17.05;;
55497;SDS011;41357;52.806;18.268;2023-11-19T13:26:12;40.10;;;16.45;;
55497;SDS011;41357;52.806;18.268;2023-11-19T13:28:38;42.70;;;15.73;;
55497;SDS011;41357;52.806;18.268;2023-11-19T13:31:04;35.13;;;14.07;;
55497;SDS011;41357;52.806;18.268;2023-11-19T13:33:31;33.95;;;13.18;;
55497;SDS011;41357;52.806;18.268;2023-11-19T13:35:57;37.85;;;13.70;;
55497;SDS011;41357;52.806;18.268;2023-11-19T13:38:24;29.13;;;14.73;;
55497;SDS011;41357;52.806;18.268;2023-11-19T13:40:51;30.92;;;11.07;;
55497;SDS011;41357;52.806;18.268;2023-11-19T13:43:17;29.27;;;11.38;;
55497;SDS011;41357;52.806;18.268;2023-11-19T13:45:43;33.28;;;12.00;;
55497;SDS011;41357;52.806;18.268;2023-11-19T13:48:09;34.60;;;12.55;;
55497;SDS011;41357;52.806;18.268;2023-11-19T13:50:35;35.78;;;12.90;;
55497;SDS011;41357;52.806;18.268;2023-11-19T13:53:02;34.08;;;13.48;;
55497;SDS011;41357;52.806;18.268;2023-11-19T13:55:30;49.40;;;21.33;;
55497;SDS011;41357;52.806;18.268;2023-11-19T13:57:56;53.20;;;19.23;;
55497;SDS011;41357;52.806;18.268;2023-11-19T14:00:22;72.28;;;24.25;;
55497;SDS011;41357;52.806;18.268;2023-11-19T14:02:49;55.00;;;19.15;;
55497;SDS011;41357;52.806;18.268;2023-11-19T14:05:15;44.00;;;16.88;;
55497;SDS011;41357;52.806;18.268;2023-11-19T14:07:42;39.90;;;16.00;;
55497;SDS011;41357;52.806;18.268;2023-11-19T14:10:09;43.35;;;16.48;;
55497;SDS011;41357;52.806;18.268;2023-11-19T14:12:38;34.03;;;16.08;;
55497;SDS011;41357;52.806;18.268;2023-11-19T14:15:05;42.15;;;16.35;;
55497;SDS011;41357;52.806;18.268;2023-11-19T14:17:35;35.35;;;14.35;;
55497;SDS011;41357;52.806;18.268;2023-11-19T14:20:02;36.20;;;14.00;;
55497;SDS011;41357;52.806;18.268;2023-11-19T14:22:44;49.15;;;15.88;;
55497;SDS011;41357;52.806;18.268;2023-11-19T14:25:15;40.90;;;14.32;;
55497;SDS011;41357;52.806;18.268;2023-11-19T14:27:42;54.03;;;16.05;;
55497;SDS011;41357;52.806;18.268;2023-11-19T14:30:09;48.75;;;18.05;;
55497;SDS011;41357;52.806;18.268;2023-11-19T14:32:39;60.10;;;24.33;;
55497;SDS011;41357;52.806;18.268;2023-11-19T14:35:06;141.60;;;57.90;;